createdAt,value
2022-12-18T00:02:16.331Z,-4.91
2022-12-18T00:04:43.570Z,-4.64
2022-12-18T00:07:10.554Z,-4.69
2022-12-18T00:09:39.351Z,-4.74
2022-12-18T00:14:45.561Z,-5.09
2022-12-18T00:17:12.592Z,-4.76
2022-12-18T00:19:39.477Z,-4.50
2022-12-18T00:22:06.964Z,-4.74
2022-12-18T00:24:34.278Z,-4.96
2022-12-18T00:27:01.408Z,-5.18
2022-12-18T00:29:28.620Z,-5.37
2022-12-18T00:31:55.741Z,-5.09
2022-12-18T00:34:23.936Z,-4.74
2022-12-18T00:36:53.008Z,-4.87
2022-12-18T00:39:19.927Z,-4.83
2022-12-18T00:42:05.319Z,-5.20
2022-12-18T00:44:32.536Z,-5.36
2022-12-18T00:46:59.541Z,-5.26
2022-12-18T00:49:26.326Z,-4.85
2022-12-18T00:51:56.186Z,-4.86
2022-12-18T00:54:23.253Z,-5.08
2022-12-18T00:56:50.790Z,-5.25
2022-12-18T00:59:18.353Z,-5.25
2022-12-18T01:01:46.123Z,-5.19
2022-12-18T01:04:13.782Z,-4.84
2022-12-18T01:06:41.317Z,-5.01
2022-12-18T01:09:10.119Z,-4.76
2022-12-18T01:11:37.576Z,-5.06
2022-12-18T01:14:05.903Z,-5.47
2022-12-18T01:16:34.215Z,-5.49
2022-12-18T01:19:01.338Z,-5.14
2022-12-18T01:21:28.378Z,-4.84
2022-12-18T01:23:56.097Z,-4.81
2022-12-18T01:26:24.769Z,-5.06
2022-12-18T01:28:51.857Z,-5.41
2022-12-18T01:31:27.914Z,-5.45
2022-12-18T01:33:55.503Z,-5.16
2022-12-18T01:36:24.735Z,-4.90
2022-12-18T01:38:51.785Z,-5.22
2022-12-18T01:41:24.559Z,-5.28
2022-12-18T01:43:55.606Z,-5.59
2022-12-18T01:46:26.541Z,-5.56
2022-12-18T01:48:58.506Z,-5.29
2022-12-18T01:51:26.167Z,-5.03
2022-12-18T01:53:53.156Z,-5.17
2022-12-18T01:56:20.460Z,-5.34
2022-12-18T01:59:03.996Z,-5.60
2022-12-18T02:01:31.247Z,-5.71
2022-12-18T02:04:34.341Z,-5.56
2022-12-18T02:07:24.681Z,-5.38
2022-12-18T02:09:51.890Z,-5.41
2022-12-18T02:12:20.770Z,-5.70
2022-12-18T02:14:57.002Z,-5.74
2022-12-18T02:17:44.539Z,-5.85
2022-12-18T02:20:26.048Z,-5.62
2022-12-18T02:23:08.779Z,-5.39
2022-12-18T02:26:10.736Z,-5.43
2022-12-18T02:29:08.701Z,-5.43
2022-12-18T02:31:44.037Z,-5.75
2022-12-18T02:34:11.640Z,-5.80
2022-12-18T02:36:40.705Z,-5.55
2022-12-18T02:39:09.176Z,-5.56
2022-12-18T02:41:37.559Z,-5.66
2022-12-18T02:44:12.577Z,-5.96
2022-12-18T02:46:41.799Z,-6.00
2022-12-18T02:49:38.557Z,-6.10
2022-12-18T02:52:08.037Z,-5.61
2022-12-18T02:54:55.406Z,-5.59
2022-12-18T02:57:43.562Z,-5.91
2022-12-18T03:00:19.392Z,-6.04
2022-12-18T03:02:59.822Z,-6.13
2022-12-18T03:05:42.211Z,-6.06
2022-12-18T03:08:16.551Z,-5.91
2022-12-18T03:10:58.656Z,-6.01
2022-12-18T03:13:48.054Z,-5.92
2022-12-18T03:16:23.201Z,-6.15
2022-12-18T03:19:07.803Z,-6.34
2022-12-18T03:21:39.601Z,-5.99
2022-12-18T03:24:08.348Z,-5.87
2022-12-18T03:26:36.283Z,-5.83
2022-12-18T03:29:07.052Z,-6.09
2022-12-18T03:31:35.950Z,-6.26
2022-12-18T03:34:14.043Z,-6.43
2022-12-18T03:36:43.858Z,-6.15
2022-12-18T03:39:11.334Z,-6.02
2022-12-18T03:41:45.329Z,-6.21
2022-12-18T03:44:57.018Z,-6.37
2022-12-18T03:47:28.262Z,-6.47
2022-12-18T03:50:22.047Z,-6.34
2022-12-18T03:52:52.673Z,-6.16
2022-12-18T03:55:20.466Z,-6.12
2022-12-18T03:57:48.711Z,-6.28
2022-12-18T04:00:17.092Z,-6.36
2022-12-18T04:03:02.053Z,-6.61
2022-12-18T04:05:33.973Z,-6.30
2022-12-18T04:08:01.524Z,-6.07
2022-12-18T04:10:29.165Z,-6.22
2022-12-18T04:13:25.158Z,-6.26
2022-12-18T04:15:53.048Z,-6.44
2022-12-18T04:18:21.555Z,-6.54
2022-12-18T04:20:49.354Z,-6.41
2022-12-18T04:23:17.615Z,-6.10
2022-12-18T04:25:44.724Z,-6.19
2022-12-18T04:28:15.331Z,-6.24
2022-12-18T04:30:43.115Z,-6.44
2022-12-18T04:33:11.883Z,-6.53
2022-12-18T04:35:40.244Z,-6.55
2022-12-18T04:38:08.832Z,-6.08
2022-12-18T04:40:36.498Z,-6.22
2022-12-18T04:43:04.116Z,-6.28
2022-12-18T04:45:32.026Z,-6.36
2022-12-18T04:47:59.789Z,-6.48
2022-12-18T04:50:27.009Z,-6.61
2022-12-18T04:52:54.189Z,-6.34
2022-12-18T04:55:21.203Z,-6.03
2022-12-18T04:57:48.186Z,-6.01
2022-12-18T05:00:15.723Z,-6.21
2022-12-18T05:02:42.959Z,-6.52
2022-12-18T05:05:10.344Z,-6.60
2022-12-18T05:07:37.156Z,-6.44
2022-12-18T05:10:07.747Z,-6.07
2022-12-18T05:12:54.687Z,-6.15
2022-12-18T05:15:21.676Z,-6.31
2022-12-18T05:17:48.483Z,-6.32
2022-12-18T05:20:15.575Z,-6.47
2022-12-18T05:22:42.504Z,-6.20
2022-12-18T05:25:09.500Z,-6.12
2022-12-18T05:27:36.909Z,-6.19
2022-12-18T05:30:04.978Z,-6.21
2022-12-18T05:32:32.131Z,-6.25
2022-12-18T05:34:58.931Z,-6.33
2022-12-18T05:37:26.941Z,-6.37
2022-12-18T05:39:53.987Z,-6.23
2022-12-18T05:42:20.806Z,-6.06
2022-12-18T05:44:48.185Z,-6.12
2022-12-18T05:47:15.109Z,-6.41
2022-12-18T05:49:42.114Z,-6.48
2022-12-18T05:52:09.426Z,-6.32
2022-12-18T05:54:36.427Z,-6.16
2022-12-18T05:57:03.433Z,-6.11
2022-12-18T05:59:30.872Z,-6.35
2022-12-18T06:01:57.848Z,-6.44
2022-12-18T06:04:24.959Z,-6.22
2022-12-18T06:06:52.562Z,-6.16
2022-12-18T06:09:19.674Z,-6.16
2022-12-18T06:11:46.620Z,-6.40
2022-12-18T06:21:50.506Z,-6.13
2022-12-18T06:24:17.569Z,-6.35
2022-12-18T06:26:44.433Z,-6.46
2022-12-18T06:29:11.336Z,-6.25
2022-12-18T06:31:38.720Z,-6.20
2022-12-18T06:34:05.958Z,-6.23
2022-12-18T06:36:32.865Z,-6.24
2022-12-18T06:38:59.904Z,-6.32
2022-12-18T06:41:26.971Z,-6.21
2022-12-18T06:43:59.405Z,-6.07
2022-12-18T06:46:26.847Z,-6.13
2022-12-18T06:48:53.935Z,-6.15
2022-12-18T06:51:22.084Z,-6.24
2022-12-18T06:53:48.977Z,-6.28
2022-12-18T06:56:15.995Z,-5.85
2022-12-18T06:58:42.969Z,-6.10
2022-12-18T07:01:11.459Z,-6.15
2022-12-18T07:03:42.621Z,-6.29
2022-12-18T07:06:18.177Z,-6.01
2022-12-18T07:08:46.079Z,-5.82
2022-12-18T07:11:13.351Z,-5.73
2022-12-18T07:13:40.467Z,-5.79
2022-12-18T07:16:20.916Z,-5.93
2022-12-18T07:18:51.157Z,-6.01
2022-12-18T07:21:19.741Z,-5.69
2022-12-18T07:23:49.216Z,-5.59
2022-12-18T07:26:18.790Z,-5.68
2022-12-18T07:28:45.659Z,-5.68
2022-12-18T07:31:15.771Z,-5.74
2022-12-18T07:33:43.142Z,-5.73
2022-12-18T10:26:44.137Z,-6.42
2022-12-18T10:29:12.583Z,-5.88
2022-12-18T10:31:39.678Z,-5.45
2022-12-18T10:34:11.199Z,-5.46
2022-12-18T10:36:40.991Z,-5.44
2022-12-18T10:39:19.920Z,-5.76
2022-12-18T10:41:47.008Z,-5.98
2022-12-18T10:44:23.937Z,-5.82
2022-12-18T10:46:56.395Z,-5.68
2022-12-18T10:49:28.466Z,-5.62
2022-12-18T10:52:06.070Z,-5.79
2022-12-18T10:54:35.089Z,-5.96
2022-12-18T10:57:29.780Z,-5.68
2022-12-18T10:59:58.339Z,-5.56
2022-12-18T11:02:43.955Z,-5.62
2022-12-18T11:05:37.738Z,-5.73
2022-12-18T11:08:04.691Z,-5.98
2022-12-18T11:10:34.085Z,-5.69
2022-12-18T11:13:37.081Z,-5.43
2022-12-18T11:16:04.211Z,-5.55
2022-12-18T11:18:35.271Z,-5.58
2022-12-18T11:21:10.386Z,-5.78
2022-12-18T11:23:37.901Z,-5.65
2022-12-18T11:26:05.171Z,-5.29
2022-12-18T11:28:44.437Z,-5.59
2022-12-18T11:31:15.375Z,-5.87
2022-12-18T11:34:04.852Z,-6.12
2022-12-18T11:36:37.188Z,-6.23
2022-12-18T11:39:18.768Z,-5.90
2022-12-18T11:42:20.122Z,-5.84
2022-12-18T11:44:56.521Z,-6.02
2022-12-18T11:47:39.688Z,-6.23
2022-12-18T11:50:13.556Z,-6.43
2022-12-18T11:52:40.867Z,-6.09
2022-12-18T11:55:12.986Z,-5.76
2022-12-18T11:57:51.924Z,-6.07
2022-12-18T12:00:19.728Z,-6.04
2022-12-18T12:03:05.580Z,-6.19
2022-12-18T12:05:42.593Z,-6.16
2022-12-18T12:08:24.790Z,-5.78
2022-12-18T12:10:58.100Z,-5.92
2022-12-18T12:14:03.334Z,-6.17
2022-12-18T12:16:36.781Z,-6.33
2022-12-18T12:19:03.482Z,-6.40
2022-12-18T12:21:41.069Z,-6.58
2022-12-18T12:24:33.381Z,-6.38
2022-12-18T12:27:06.254Z,-6.25
2022-12-18T12:30:00.264Z,-6.48
2022-12-18T12:32:46.459Z,-6.63
2022-12-18T12:35:30.515Z,-6.74
2022-12-18T12:37:57.553Z,-6.40
2022-12-18T12:40:51.305Z,-6.13
2022-12-18T12:43:38.547Z,-6.13
2022-12-18T12:46:11.449Z,-6.27
2022-12-18T12:48:49.127Z,-6.33
2022-12-18T12:51:29.998Z,-6.60
2022-12-18T12:53:57.849Z,-6.26
2022-12-18T12:56:29.621Z,-6.08
2022-12-18T12:59:17.743Z,-6.03
2022-12-18T13:01:53.620Z,-6.17
2022-12-18T13:04:44.219Z,-6.51
2022-12-18T13:07:28.359Z,-6.88
2022-12-18T13:10:23.021Z,-6.95
2022-12-18T13:13:03.555Z,-6.63
2022-12-18T13:15:39.777Z,-6.39
2022-12-18T13:18:10.241Z,-6.79
2022-12-18T13:20:42.270Z,-7.01
2022-12-18T13:23:26.315Z,-7.19
2022-12-18T13:26:16.615Z,-7.33
2022-12-18T13:28:46.827Z,-6.96
2022-12-18T13:31:15.511Z,-6.72
2022-12-18T13:36:33.111Z,-7.00
2022-12-18T13:39:12.495Z,-7.24
2022-12-18T13:41:40.058Z,-7.40
2022-12-18T13:44:13.354Z,-7.28
2022-12-18T13:46:45.595Z,-7.27
2022-12-18T13:49:14.059Z,-7.22
2022-12-18T13:51:49.131Z,-7.34
2022-12-18T16:46:16.902Z,-8.98
2022-12-18T16:48:43.985Z,-8.26
2022-12-18T16:51:11.770Z,-7.70
2022-12-18T16:53:39.635Z,-7.66
2022-12-18T16:56:07.154Z,-7.85
2022-12-18T16:58:34.813Z,-8.04
2022-12-18T17:01:08.415Z,-8.13
2022-12-18T17:03:35.406Z,-8.01
2022-12-18T17:06:04.250Z,-7.69
2022-12-18T17:08:32.425Z,-7.63
2022-12-18T17:11:06.751Z,-7.69
2022-12-18T17:13:33.941Z,-7.77
2022-12-18T17:16:07.808Z,-8.14
2022-12-18T17:18:35.151Z,-8.20
2022-12-18T17:21:02.916Z,-7.91
2022-12-18T17:23:32.933Z,-7.69
2022-12-18T17:26:00.053Z,-7.83
2022-12-18T17:28:27.488Z,-8.02
2022-12-18T17:30:55.242Z,-8.18
2022-12-18T17:33:23.301Z,-8.25
2022-12-18T17:35:50.418Z,-7.96
2022-12-18T17:38:17.677Z,-8.07
2022-12-18T17:40:46.487Z,-8.25
2022-12-18T17:43:14.035Z,-8.20
2022-12-18T17:45:41.154Z,-8.48
2022-12-18T17:48:08.319Z,-8.67
2022-12-18T17:50:36.466Z,-8.31
2022-12-18T17:53:03.639Z,-8.15
2022-12-18T17:55:30.594Z,-8.39
2022-12-18T17:57:59.778Z,-8.53
2022-12-18T18:00:27.550Z,-8.53
2022-12-18T18:02:55.486Z,-8.72
2022-12-18T18:05:22.561Z,-8.62
2022-12-18T18:07:51.925Z,-8.27
2022-12-18T18:10:20.450Z,-8.42
2022-12-18T18:13:06.841Z,-8.60
2022-12-18T18:15:34.181Z,-8.76
2022-12-18T18:18:02.073Z,-8.85
2022-12-18T18:20:30.103Z,-8.96
2022-12-18T18:22:57.950Z,-8.59
2022-12-18T18:25:25.774Z,-8.31
2022-12-18T18:27:53.456Z,-8.31
2022-12-18T18:30:20.677Z,-8.62
2022-12-18T18:32:47.825Z,-8.70
2022-12-18T18:35:37.555Z,-8.85
2022-12-18T18:38:03.969Z,-8.93
2022-12-18T18:40:31.084Z,-8.45
2022-12-18T18:42:57.981Z,-8.50
2022-12-18T18:45:25.015Z,-8.40
2022-12-18T18:47:52.128Z,-8.65
2022-12-18T18:50:19.612Z,-8.75
2022-12-18T18:52:47.240Z,-8.95
2022-12-18T18:55:22.323Z,-9.07
2022-12-18T18:57:53.210Z,-8.63
2022-12-18T19:00:20.464Z,-8.75
2022-12-18T19:02:53.045Z,-8.96
2022-12-18T19:05:22.490Z,-9.20
2022-12-18T19:07:50.412Z,-9.17
2022-12-18T19:10:18.482Z,-9.15
2022-12-18T19:13:05.087Z,-8.76
2022-12-18T19:15:33.772Z,-8.80
2022-12-18T19:18:01.330Z,-9.01
2022-12-18T19:20:28.790Z,-9.14
2022-12-18T19:22:56.168Z,-9.21
2022-12-18T19:25:29.699Z,-9.22
2022-12-18T19:28:05.698Z,-8.74
2022-12-18T19:30:38.578Z,-8.69
2022-12-18T19:33:20.015Z,-8.62
2022-12-18T19:35:53.667Z,-8.93
2022-12-18T19:38:21.482Z,-9.10
2022-12-18T19:40:48.578Z,-9.27
2022-12-18T19:43:15.801Z,-8.99
2022-12-18T19:45:43.613Z,-8.62
2022-12-18T19:48:10.746Z,-8.61
2022-12-18T19:50:41.249Z,-8.80
2022-12-18T19:53:08.138Z,-9.23
2022-12-18T19:55:41.402Z,-9.36
2022-12-18T19:58:10.604Z,-9.55
2022-12-18T20:00:37.713Z,-9.13
2022-12-18T20:03:15.616Z,-9.04
2022-12-18T20:05:49.666Z,-9.17
2022-12-18T20:08:17.124Z,-9.31
2022-12-18T20:10:50.111Z,-9.56
2022-12-18T20:13:18.361Z,-9.68
2022-12-18T20:15:45.651Z,-9.51
2022-12-18T20:18:12.823Z,-9.36
2022-12-18T20:20:40.062Z,-9.26
2022-12-18T20:23:07.349Z,-9.28
2022-12-18T20:25:34.443Z,-9.50
2022-12-18T20:28:01.608Z,-9.74
2022-12-18T20:30:29.253Z,-9.71
2022-12-18T20:32:56.361Z,-9.06
2022-12-18T20:35:27.562Z,-8.62
2022-12-18T20:37:55.404Z,-8.94
2022-12-18T20:40:23.502Z,-9.09
2022-12-18T20:42:50.534Z,-9.67
2022-12-18T20:45:20.028Z,-9.74
2022-12-18T20:47:47.484Z,-9.86
2022-12-18T20:50:14.941Z,-9.65
2022-12-18T20:52:42.099Z,-8.91
2022-12-18T20:55:09.134Z,-8.58
2022-12-18T20:57:38.488Z,-8.65
2022-12-18T21:00:06.752Z,-8.82
2022-12-18T21:02:34.049Z,-9.12
2022-12-18T21:05:01.247Z,-9.60
2022-12-18T21:07:28.084Z,-9.87
2022-12-18T21:09:55.212Z,-9.95
2022-12-18T21:12:34.899Z,-9.37
2022-12-18T21:15:08.032Z,-8.94
2022-12-18T21:17:38.691Z,-8.98
2022-12-18T21:20:15.798Z,-9.32
2022-12-18T21:22:44.918Z,-9.64
2022-12-18T21:25:13.333Z,-9.78
2022-12-18T21:27:40.577Z,-9.81
2022-12-18T21:30:08.551Z,-9.74
2022-12-18T21:32:36.541Z,-9.05
2022-12-18T21:35:04.901Z,-8.83
2022-12-18T21:37:31.756Z,-8.92
2022-12-18T21:39:58.781Z,-9.14
2022-12-18T21:42:44.574Z,-9.39
2022-12-18T21:45:11.585Z,-9.87
2022-12-18T21:47:38.656Z,-10.15
2022-12-18T21:50:06.323Z,-9.81
2022-12-18T21:52:33.821Z,-9.28
2022-12-18T21:55:06.657Z,-8.90
2022-12-18T21:57:37.281Z,-8.74
2022-12-18T22:00:06.087Z,-9.09
2022-12-18T22:02:39.349Z,-9.54
2022-12-18T22:05:07.652Z,-9.63
2022-12-18T22:07:34.637Z,-9.80
2022-12-18T22:10:02.046Z,-9.24
2022-12-18T22:12:43.164Z,-8.41
2022-12-18T22:15:13.135Z,-8.38
2022-12-18T22:17:50.243Z,-8.58
2022-12-18T22:20:18.403Z,-8.93
2022-12-18T22:22:48.219Z,-9.09
2022-12-18T22:25:15.363Z,-9.34
2022-12-18T22:27:42.307Z,-9.62
2022-12-18T22:30:10.994Z,-9.21
2022-12-18T22:32:37.833Z,-8.54
2022-12-18T22:35:09.528Z,-8.15
2022-12-18T22:37:41.030Z,-8.34
2022-12-18T22:40:11.201Z,-8.91
2022-12-18T22:42:40.588Z,-9.20
2022-12-18T22:45:08.636Z,-9.49
2022-12-18T22:47:35.633Z,-9.72
2022-12-18T22:50:02.525Z,-9.48
2022-12-18T22:52:30.518Z,-8.60
2022-12-18T22:54:57.538Z,-8.40
2022-12-18T22:57:24.789Z,-8.69
2022-12-18T22:59:51.715Z,-8.85
2022-12-18T23:02:19.051Z,-9.21
2022-12-18T23:04:46.953Z,-9.61
2022-12-18T23:07:14.815Z,-9.76
2022-12-18T23:09:41.761Z,-9.60
2022-12-18T23:12:14.256Z,-8.66
2022-12-18T23:14:41.218Z,-8.14
2022-12-18T23:17:08.102Z,-8.12
2022-12-18T23:19:37.892Z,-8.35
2022-12-18T23:22:10.032Z,-8.70
2022-12-18T23:24:38.892Z,-8.98
2022-12-18T23:27:08.608Z,-9.19
2022-12-18T23:29:40.164Z,-9.32
2022-12-18T23:32:07.156Z,-8.67
2022-12-18T23:34:34.570Z,-8.03
2022-12-18T23:37:03.140Z,-7.97
2022-12-18T23:39:30.546Z,-8.24
2022-12-18T23:41:58.381Z,-8.72
2022-12-18T23:44:25.618Z,-8.93
2022-12-18T23:46:52.650Z,-9.08
2022-12-18T23:49:19.813Z,-9.20
2022-12-18T23:51:47.017Z,-9.05
2022-12-18T23:54:13.897Z,-8.30
2022-12-18T23:56:41.001Z,-7.92
2022-12-18T23:59:08.337Z,-7.97
